Time;durP1;ratioP1;P1;durP2;ratioP2;P2;SDS_P1;SDS_P2;PMS_P1;PMS_P2;Temp;Humidity;BMP_temperature;BMP_pressure;BME280_temperature;BME280_humidity;BME280_pressure;Samples;Min_cycle;Max_cycle;Signal;HPM_P1;HPM_P2
2021/12/02 00:02:07;;;;;;;8.55;6.50;;;;;;;-140.79;100.00;63287.88;5041594;28;20799;-52
2021/12/02 00:04:34;;;;;;;10.15;7.20;;;;;;;-140.79;100.00;63287.88;5041288;28;20506;-51
2021/12/02 00:07:00;;;;;;;9.43;6.43;;;;;;;-140.79;100.00;63287.88;5045794;28;20033;-51
2021/12/02 00:09:25;;;;;;;9.95;7.20;;;;;;;-140.79;100.00;63287.88;5046038;28;20032;-51
2021/12/02 00:11:51;;;;;;;9.48;6.20;;;;;;;-140.79;100.00;63287.88;5046179;28;20130;-52
2021/12/02 00:14:23;;;;;;;9.27;6.68;;;;;;;-140.79;100.00;63287.88;5061456;28;20033;-52
2021/12/02 00:22:07;;;;;;;11.02;7.63;;;;;;;-140.79;100.00;63287.88;5046062;28;20091;-50
2021/12/02 00:24:36;;;;;;;8.70;6.40;;;;;;;-140.79;100.00;63287.88;5044979;28;20037;-53
2021/12/02 00:27:08;;;;;;;9.18;6.80;;;;;;;-140.79;100.00;63287.88;5045749;28;20033;-53
2021/12/02 00:29:34;;;;;;;8.70;6.22;;;;;;;-140.79;100.00;63287.88;5045877;28;20060;-54
2021/12/02 00:32:02;;;;;;;10.50;7.20;;;;;;;-140.79;100.00;63287.88;5046252;28;20056;-53
2021/12/02 00:34:28;;;;;;;9.43;6.78;;;;;;;-140.79;100.00;63287.88;5045958;28;20493;-52
2021/12/02 00:36:53;;;;;;;9.82;6.43;;;;;;;-140.79;100.00;63287.88;5045722;28;20040;-52
2021/12/02 00:39:19;;;;;;;8.85;6.15;;;;;;;-140.79;100.00;63287.88;5043798;28;20037;-53
2021/12/02 00:41:45;;;;;;;8.60;6.43;;;;;;;-140.79;100.00;63287.88;5045949;28;20037;-52
2021/12/02 00:44:11;;;;;;;8.60;6.30;;;;;;;-140.79;100.00;63287.88;5045402;28;20037;-52
2021/12/02 00:46:36;;;;;;;9.55;6.70;;;;;;;-140.79;100.00;63287.88;5045874;28;20492;-52
2021/12/02 00:49:03;;;;;;;8.70;6.13;;;;;;;-140.79;100.00;63287.88;5045212;28;20411;-52
2021/12/02 00:51:30;;;;;;;9.40;6.85;;;;;;;-140.79;100.00;63287.88;5045162;28;20133;-52
2021/12/02 00:53:59;;;;;;;8.43;6.07;;;;;;;-140.79;100.00;63287.88;5045304;28;20044;-53
2021/12/02 00:56:25;;;;;;;9.98;6.90;;;;;;;-140.79;100.00;63287.88;5043833;28;20029;-51
2021/12/02 00:58:51;;;;;;;8.68;6.38;;;;;;;-140.79;100.00;63287.88;5027134;28;20033;-51
2021/12/02 01:01:17;;;;;;;8.13;6.63;;;;;;;-140.79;100.00;63287.88;5060580;28;20431;-52
2021/12/02 01:03:42;;;;;;;9.70;6.80;;;;;;;-140.79;100.00;63287.88;5045414;28;20025;-51
2021/12/02 01:06:08;;;;;;;9.45;6.63;;;;;;;-140.79;100.00;63287.88;5043676;28;20044;-52
2021/12/02 01:08:34;;;;;;;8.75;6.53;;;;;;;-140.79;100.00;63287.88;5045132;28;20048;-53
2021/12/02 01:11:00;;;;;;;8.63;6.05;;;;;;;-140.79;100.00;63287.88;5045417;28;20064;-52
2021/12/02 01:13:25;;;;;;;9.73;6.22;;;;;;;-140.79;100.00;63287.88;5044676;28;20071;-52
2021/12/02 01:15:51;;;;;;;9.23;6.28;;;;;;;-140.79;100.00;63287.88;5040283;28;20037;-52
2021/12/02 01:18:16;;;;;;;9.15;6.55;;;;;;;-140.79;100.00;63287.88;5032659;28;20036;-52
2021/12/02 01:20:42;;;;;;;9.38;6.15;;;;;;;-140.79;100.00;63287.88;5044614;28;20056;-53
2021/12/02 01:23:08;;;;;;;9.30;6.38;;;;;;;-140.79;100.00;63287.88;5044394;28;20033;-53
2021/12/02 01:25:33;;;;;;;9.55;7.07;;;;;;;-140.79;100.00;63287.88;5059631;28;20037;-52
2021/12/02 01:27:59;;;;;;;9.07;6.18;;;;;;;-140.79;100.00;63287.88;5043570;28;20025;-52
2021/12/02 01:30:29;;;;;;;9.07;6.53;;;;;;;-140.79;100.00;63287.88;5044548;28;20033;-51
2021/12/02 01:33:01;;;;;;;9.40;7.07;;;;;;;-140.79;100.00;63287.88;5044491;28;20123;-52
2021/12/02 01:35:26;;;;;;;9.00;5.82;;;;;;;-140.79;100.00;63287.88;5044049;28;20032;-51
2021/12/02 01:37:52;;;;;;;9.05;6.18;;;;;;;-140.79;100.00;63287.88;5044431;28;20037;-52
2021/12/02 01:40:17;;;;;;;8.82;6.10;;;;;;;-140.79;100.00;63287.88;5044488;28;20029;-52
2021/12/02 01:42:43;;;;;;;8.65;6.13;;;;;;;-140.79;100.00;63287.88;5044593;28;20025;-53
2021/12/02 01:45:08;;;;;;;8.85;5.95;;;;;;;-140.79;100.00;63287.88;5027179;28;20033;-52
2021/12/02 01:47:34;;;;;;;8.23;6.25;;;;;;;-140.79;100.00;63287.88;5027119;28;20158;-51
2021/12/02 01:50:03;;;;;;;8.30;6.18;;;;;;;-140.79;100.00;63287.88;5026489;28;20060;-53
2021/12/02 01:52:31;;;;;;;9.40;6.63;;;;;;;-140.79;100.00;63287.88;5046935;28;20032;-52
2021/12/02 01:55:08;;;;;;;9.00;6.20;;;;;;;-140.79;100.00;63287.88;5047238;28;20765;-53
2021/12/02 01:57:36;;;;;;;8.48;6.15;;;;;;;-140.79;100.00;63287.88;5045801;28;20028;-52
2021/12/02 02:00:14;;;;;;;8.88;5.97;;;;;;;-140.79;100.00;63287.88;5045257;28;20163;-56
2021/12/02 02:02:40;;;;;;;9.02;6.15;;;;;;;-140.79;100.00;63287.88;5044701;28;20033;-53
2021/12/02 02:05:12;;;;;;;9.52;6.25;;;;;;;-140.79;100.00;63287.88;5044899;28;20055;-53
2021/12/02 02:07:46;;;;;;;8.55;6.10;;;;;;;-140.79;100.00;63287.88;5044321;28;20031;-54
2021/12/02 02:10:12;;;;;;;8.73;6.25;;;;;;;-140.79;100.00;63287.88;5044109;28;20068;-52
2021/12/02 02:12:37;;;;;;;9.15;6.28;;;;;;;-140.79;100.00;63287.88;5042693;28;20032;-53
2021/12/02 02:15:03;;;;;;;9.35;6.70;;;;;;;-140.79;100.00;63287.88;5044313;28;20037;-53
2021/12/02 02:17:39;;;;;;;10.77;6.63;;;;;;;-140.79;100.00;63287.88;5043906;28;20052;-56
2021/12/02 02:20:08;;;;;;;9.90;6.80;;;;;;;-140.79;100.00;63287.88;5044286;28;20126;-53
2021/12/02 02:22:33;;;;;;;9.60;6.70;;;;;;;-140.79;100.00;63287.88;5044392;28;20037;-54
2021/12/02 02:25:00;;;;;;;9.95;6.75;;;;;;;-140.79;100.00;63287.88;5044985;28;20056;-53
2021/12/02 02:27:26;;;;;;;9.38;6.18;;;;;;;-140.79;100.00;63287.88;5044586;28;20048;-53
2021/12/02 02:29:51;;;;;;;9.35;6.15;;;;;;;-140.79;100.00;63287.88;5044437;28;20419;-54
2021/12/02 02:32:17;;;;;;;10.48;6.28;;;;;;;-140.79;100.00;63287.88;5044475;28;20494;-53
2021/12/02 02:34:43;;;;;;;9.10;6.43;;;;;;;-140.79;100.00;63287.88;5044023;28;20098;-60
2021/12/02 02:37:08;;;;;;;8.68;5.97;;;;;;;-140.79;100.00;63287.88;5043767;28;20048;-52
2021/12/02 02:39:35;;;;;;;9.02;6.43;;;;;;;-140.79;100.00;63287.88;5042423;28;20580;-53
2021/12/02 02:42:04;;;;;;;8.68;6.22;;;;;;;-140.79;100.00;63287.88;5044107;28;20132;-57
2021/12/02 02:44:31;;;;;;;9.48;6.45;;;;;;;-140.79;100.00;63287.88;5042222;28;20050;-51
2021/12/02 02:46:56;;;;;;;10.15;6.88;;;;;;;-140.79;100.00;63287.88;5043847;28;20036;-52
2021/12/02 02:49:22;;;;;;;9.70;6.90;;;;;;;-140.79;100.00;63287.88;5043216;28;20415;-54
2021/12/02 02:51:48;;;;;;;10.05;6.70;;;;;;;-140.79;100.00;63287.88;5043824;28;20124;-53
2021/12/02 02:54:16;;;;;;;9.68;6.63;;;;;;;-140.79;100.00;63287.88;5042748;28;20041;-52
2021/12/02 02:57:03;;;;;;;10.90;7.03;;;;;;;-140.79;100.00;63287.88;5043357;28;20036;-52
2021/12/02 02:59:59;;;;;;;9.40;6.55;;;;;;;-140.79;100.00;63287.88;5043638;28;20036;-52
2021/12/02 03:02:33;;;;;;;9.75;6.88;;;;;;;-140.79;100.00;63287.88;5044786;28;20040;-53
2021/12/02 03:05:19;;;;;;;9.38;6.63;;;;;;;-140.79;100.00;63287.88;5047265;28;20112;-53
2021/12/02 03:07:51;;;;;;;9.63;6.35;;;;;;;-140.79;100.00;63287.88;5031680;28;20043;-52
2021/12/02 03:10:23;;;;;;;9.32;6.63;;;;;;;-140.79;100.00;63287.88;5029836;28;20134;-52
2021/12/02 03:17:43;;;;;;;10.35;6.75;;;;;;;-140.79;100.00;63287.88;5046838;28;20404;-52
2021/12/02 03:20:09;;;;;;;8.88;6.72;;;;;;;-140.79;100.00;63287.88;5046732;28;20043;-52
2021/12/02 03:22:35;;;;;;;8.80;6.35;;;;;;;-140.79;100.00;63287.88;5046714;28;20092;-53
2021/12/02 03:25:01;;;;;;;9.02;6.32;;;;;;;-140.79;100.00;63287.88;5046711;28;20120;-53
2021/12/02 03:27:26;;;;;;;10.45;6.75;;;;;;;-140.79;100.00;63287.88;5046776;28;20069;-53
2021/12/02 03:29:52;;;;;;;9.93;6.22;;;;;;;-140.79;100.00;63287.88;5046578;28;20711;-51
2021/12/02 03:32:17;;;;;;;9.52;6.43;;;;;;;-140.79;100.00;63287.88;5046543;28;20162;-53
2021/12/02 03:34:43;;;;;;;10.52;6.90;;;;;;;-140.79;100.00;63287.88;5046418;28;20029;-53
2021/12/02 03:37:08;;;;;;;8.57;6.45;;;;;;;-140.79;100.00;63287.88;5046195;28;20032;-52
2021/12/02 03:39:34;;;;;;;10.07;6.80;;;;;;;-140.79;100.00;63287.88;5046528;28;20033;-53
2021/12/02 03:41:59;;;;;;;8.95;6.65;;;;;;;-140.79;100.00;63287.88;5045050;28;20028;-53
2021/12/02 03:44:25;;;;;;;9.75;6.75;;;;;;;-140.79;100.00;63287.88;5046461;28;20017;-53
2021/12/02 03:46:51;;;;;;;8.68;6.35;;;;;;;-140.79;100.00;63287.88;5046899;28;20021;-50
2021/12/02 03:49:16;;;;;;;9.77;6.28;;;;;;;-140.79;100.00;63287.88;5044859;28;20029;-52
2021/12/02 03:51:42;;;;;;;9.82;6.60;;;;;;;-140.79;100.00;63287.88;5046322;28;20123;-52
2021/12/02 03:54:07;;;;;;;9.57;6.40;;;;;;;-140.79;100.00;63287.88;5045821;28;20040;-53
2021/12/02 03:56:33;;;;;;;10.85;6.80;;;;;;;-140.79;100.00;63287.88;5046188;28;20029;-52
2021/12/02 03:58:59;;;;;;;9.57;6.68;;;;;;;-140.79;100.00;63287.88;5046332;28;20020;-53
2021/12/02 04:01:24;;;;;;;9.10;6.93;;;;;;;-140.79;100.00;63287.88;5045999;28;20036;-52
2021/12/02 04:03:50;;;;;;;10.50;6.78;;;;;;;-140.79;100.00;63287.88;5041467;28;20500;-52
2021/12/02 04:06:15;;;;;;;9.10;6.50;;;;;;;-140.79;100.00;63287.88;5043447;28;20864;-53
2021/12/02 04:11:32;;;;;;;9.32;6.28;;;;;;;-140.79;100.00;63287.88;5036951;28;20023;-52
2021/12/02 04:16:51;;;;;;;8.85;6.35;;;;;;;-140.79;100.00;63287.88;5045915;28;20124;-52
2021/12/02 04:19:17;;;;;;;9.20;6.65;;;;;;;-140.79;100.00;63287.88;5045565;28;20037;-52
2021/12/02 04:21:43;;;;;;;9.20;6.78;;;;;;;-140.79;100.00;63287.88;5045870;28;20116;-52
2021/12/02 04:24:08;;;;;;;8.95;6.25;;;;;;;-140.79;100.00;63287.88;5045834;28;20052;-51
2021/12/02 04:26:34;;;;;;;8.95;6.13;;;;;;;-140.79;100.00;63287.88;5045826;28;20036;-52
2021/12/02 04:28:59;;;;;;;9.32;6.55;;;;;;;-140.79;100.00;63287.88;5045713;28;20033;-52
2021/12/02 04:31:24;;;;;;;10.05;6.20;;;;;;;-140.79;100.00;63287.88;5044495;28;20029;-52
2021/12/02 04:33:50;;;;;;;9.40;6.60;;;;;;;-140.79;100.00;63287.88;5031028;28;20048;-52
2021/12/02 04:36:15;;;;;;;9.52;5.93;;;;;;;-140.79;100.00;63287.88;5045469;28;20075;-50
2021/12/02 04:38:41;;;;;;;8.57;5.88;;;;;;;-140.79;100.00;63287.88;5030116;28;20144;-52
2021/12/02 04:41:06;;;;;;;8.40;5.97;;;;;;;-140.79;100.00;63287.88;5043245;28;20040;-52
2021/12/02 04:43:31;;;;;;;9.13;6.00;;;;;;;-140.79;100.00;63287.88;5045631;28;20032;-53
2021/12/02 04:45:57;;;;;;;8.40;6.03;;;;;;;-140.79;100.00;63287.88;5044604;28;20543;-53
2021/12/02 04:48:22;;;;;;;9.55;5.95;;;;;;;-140.79;100.00;63287.88;5045520;28;20036;-52
2021/12/02 04:50:48;;;;;;;10.82;6.05;;;;;;;-140.79;100.00;63287.88;5045022;28;20542;-52
2021/12/02 04:53:14;;;;;;;9.07;5.97;;;;;;;-140.79;100.00;63287.88;5028404;28;20415;-53
2021/12/02 04:55:39;;;;;;;8.27;5.57;;;;;;;-140.79;100.00;63287.88;5024503;28;20890;-53
2021/12/02 04:58:05;;;;;;;8.95;5.88;;;;;;;-140.79;100.00;63287.88;5040879;28;20492;-52
2021/12/02 05:00:30;;;;;;;8.93;5.97;;;;;;;-140.79;100.00;63287.88;5026265;28;20040;-53
2021/12/02 05:02:56;;;;;;;8.77;5.82;;;;;;;-140.79;100.00;63287.88;5026505;28;20040;-52
2021/12/02 05:05:22;;;;;;;10.65;5.63;;;;;;;-140.79;100.00;63287.88;5025317;28;20091;-52
2021/12/02 05:07:49;;;;;;;9.32;5.80;;;;;;;-140.79;100.00;63287.88;5026444;28;20076;-52
2021/12/02 05:10:14;;;;;;;11.68;5.90;;;;;;;-140.79;100.00;63287.88;5026078;28;20769;-52
2021/12/02 05:12:40;;;;;;;9.95;6.10;;;;;;;-140.79;100.00;63287.88;5024516;28;20029;-53
2021/12/02 05:15:06;;;;;;;12.35;6.05;;;;;;;-140.79;100.00;63287.88;5024299;28;20033;-53
2021/12/02 05:17:31;;;;;;;13.43;6.30;;;;;;;-140.79;100.00;63287.88;5024232;28;20072;-54
2021/12/02 05:19:56;;;;;;;12.57;5.63;;;;;;;-140.79;100.00;63287.88;5024226;28;20032;-53
2021/12/02 05:22:22;;;;;;;9.82;5.70;;;;;;;-140.79;100.00;63287.88;5024199;28;20033;-54
2021/12/02 05:24:47;;;;;;;11.45;5.78;;;;;;;-140.79;100.00;63287.88;5022438;28;20054;-52
2021/12/02 05:27:14;;;;;;;10.55;6.13;;;;;;;-140.79;100.00;63287.88;5022619;28;20040;-53
2021/12/02 05:29:39;;;;;;;14.15;5.85;;;;;;;-140.79;100.00;63287.88;5022425;28;20037;-52
2021/12/02 05:32:05;;;;;;;11.98;5.78;;;;;;;-140.79;100.00;63287.88;5024503;28;20048;-52
2021/12/02 05:34:31;;;;;;;19.83;7.32;;;;;;;-140.79;100.00;63287.88;5024345;28;20048;-53
2021/12/02 05:36:56;;;;;;;11.68;5.53;;;;;;;-140.79;100.00;63287.88;5024143;28;20033;-52
2021/12/02 05:39:22;;;;;;;8.98;5.75;;;;;;;-140.79;100.00;63287.88;5022574;28;20022;-52
2021/12/02 05:41:47;;;;;;;13.32;6.38;;;;;;;-140.79;100.00;63287.88;5023393;28;20040;-53
2021/12/02 05:44:12;;;;;;;12.63;5.93;;;;;;;-140.79;100.00;63287.88;5025820;28;20030;-53
2021/12/02 05:46:38;;;;;;;11.18;6.38;;;;;;;-140.79;100.00;63287.88;5002297;28;20029;-53
2021/12/02 05:49:03;;;;;;;14.27;7.95;;;;;;;-140.79;100.00;63287.88;5050208;28;20038;-53
2021/12/02 05:51:29;;;;;;;12.82;6.60;;;;;;;-140.79;100.00;63287.88;5024870;28;20491;-52
2021/12/02 05:53:54;;;;;;;13.32;6.03;;;;;;;-140.79;100.00;63287.88;5025531;28;20052;-54
2021/12/02 05:56:21;;;;;;;12.13;6.40;;;;;;;-140.79;100.00;63287.88;5026987;28;20570;-54
2021/12/02 05:58:46;;;;;;;11.20;5.97;;;;;;;-140.79;100.00;63287.88;5027125;28;20033;-52
2021/12/02 06:01:12;;;;;;;12.57;5.93;;;;;;;-140.79;100.00;63287.88;5024544;28;20045;-51
2021/12/02 06:03:38;;;;;;;10.43;5.88;;;;;;;-140.79;100.00;63287.88;5034504;28;20094;-53
2021/12/02 06:06:04;;;;;;;9.85;5.47;;;;;;;-140.79;100.00;63287.88;5043901;28;20037;-53
2021/12/02 06:08:30;;;;;;;10.55;5.53;;;;;;;-140.79;100.00;63287.88;5042218;28;20119;-52
2021/12/02 06:10:56;;;;;;;10.90;5.47;;;;;;;-140.79;100.00;63287.88;5043807;28;20396;-52
2021/12/02 06:13:21;;;;;;;10.63;5.10;;;;;;;-140.79;100.00;63287.88;5043747;28;20529;-55
2021/12/02 06:15:47;;;;;;;13.07;5.97;;;;;;;-140.79;100.00;63287.88;5040234;28;20044;-52
2021/12/02 06:18:12;;;;;;;16.73;5.88;;;;;;;-140.79;100.00;63287.88;5024499;28;20040;-53
2021/12/02 06:20:37;;;;;;;11.25;6.30;;;;;;;-140.79;100.00;63287.88;5040668;28;20110;-51
2021/12/02 06:23:03;;;;;;;12.73;6.93;;;;;;;-140.79;100.00;63287.88;5043473;28;20510;-52
2021/12/02 06:27:57;;;;;;;21.50;11.30;;;;;;;-140.79;100.00;63287.88;5024535;28;20628;-54
2021/12/02 06:30:23;;;;;;;18.45;11.82;;;;;;;-140.79;100.00;63287.88;5024319;28;20033;-54
2021/12/02 06:32:49;;;;;;;18.63;11.30;;;;;;;-140.79;100.00;63287.88;5026069;28;20280;-52
2021/12/02 06:35:14;;;;;;;18.67;10.68;;;;;;;-140.79;100.00;63287.88;5028121;28;20753;-53
2021/12/02 06:37:40;;;;;;;18.15;10.52;;;;;;;-140.79;100.00;63287.88;5038335;28;20040;-53
2021/12/02 06:40:06;;;;;;;15.90;9.80;;;;;;;-140.79;100.00;63287.88;5044865;28;20091;-53
2021/12/02 06:42:31;;;;;;;17.20;9.73;;;;;;;-140.79;100.00;63287.88;5044105;28;20061;-52
2021/12/02 06:44:57;;;;;;;16.27;9.23;;;;;;;-140.79;100.00;63287.88;5046481;28;20057;-54
2021/12/02 06:47:28;;;;;;;15.93;9.43;;;;;;;-140.79;100.00;63287.88;5046949;28;20033;-53
2021/12/02 06:49:55;;;;;;;14.40;8.82;;;;;;;-140.79;100.00;63287.88;5046932;28;21282;-54
2021/12/02 06:52:23;;;;;;;15.18;8.95;;;;;;;-140.79;100.00;63287.88;5031590;28;20056;-52
2021/12/02 06:54:49;;;;;;;13.20;8.07;;;;;;;-140.79;100.00;63287.88;5029038;28;20025;-54
2021/12/02 06:57:16;;;;;;;15.75;8.70;;;;;;;-140.79;100.00;63287.88;5035513;28;20077;-54
2021/12/02 06:59:41;;;;;;;15.65;8.95;;;;;;;-140.79;100.00;63287.88;5028671;28;20021;-53
2021/12/02 07:02:07;;;;;;;17.25;8.57;;;;;;;-140.79;100.00;63287.88;5034444;28;20028;-53
2021/12/02 07:04:33;;;;;;;14.18;8.10;;;;;;;-140.79;100.00;63287.88;5034338;28;20450;-52
2021/12/02 07:06:58;;;;;;;14.30;9.13;;;;;;;-140.79;100.00;63287.88;5042737;28;20028;-54
2021/12/02 07:09:23;;;;;;;13.13;8.20;;;;;;;-140.79;100.00;63287.88;5044999;28;20040;-53
2021/12/02 07:11:49;;;;;;;13.93;8.07;;;;;;;-140.79;100.00;63287.88;5045863;28;20029;-53
2021/12/02 07:14:17;;;;;;;12.25;7.57;;;;;;;-140.79;100.00;63287.88;5046335;28;20037;-53
2021/12/02 07:16:42;;;;;;;12.27;7.90;;;;;;;-140.79;100.00;63287.88;5033333;28;20032;-55
2021/12/02 07:19:08;;;;;;;13.68;8.98;;;;;;;-140.79;100.00;63287.88;5043505;28;20033;-53
2021/12/02 07:21:39;;;;;;;14.07;8.00;;;;;;;-140.79;100.00;63287.88;5043726;28;20508;-53
2021/12/02 07:24:05;;;;;;;12.00;7.47;;;;;;;-140.79;100.00;63287.88;5045448;28;20056;-53
2021/12/02 07:26:41;;;;;;;11.00;7.30;;;;;;;-140.79;100.00;63287.88;5046538;28;20503;-55
2021/12/02 07:29:10;;;;;;;12.50;8.20;;;;;;;-140.79;100.00;63287.88;5042400;28;20021;-54
2021/12/02 07:31:35;;;;;;;12.98;7.95;;;;;;;-140.79;100.00;63287.88;5045631;28;20837;-53
2021/12/02 07:34:02;;;;;;;12.75;8.15;;;;;;;-140.79;100.00;63287.88;5035270;28;20035;-54
2021/12/02 07:36:28;;;;;;;13.50;7.32;;;;;;;-140.79;100.00;63287.88;5045584;28;20480;-53
2021/12/02 07:38:53;;;;;;;12.23;7.75;;;;;;;-140.79;100.00;63287.88;5045104;28;20052;-54
2021/12/02 07:41:19;;;;;;;11.00;6.72;;;;;;;-140.79;100.00;63287.88;5045466;28;20029;-54
2021/12/02 07:43:44;;;;;;;10.85;6.93;;;;;;;-140.79;100.00;63287.88;5031898;28;20025;-53
2021/12/02 07:46:10;;;;;;;12.23;7.13;;;;;;;-140.79;100.00;63287.88;5033271;28;20017;-51
2021/12/02 07:48:35;;;;;;;13.18;7.82;;;;;;;-140.79;100.00;63287.88;5037429;28;20718;-51
2021/12/02 07:51:03;;;;;;;13.30;7.43;;;;;;;-140.79;100.00;63287.88;5043091;28;20504;-52
2021/12/02 07:53:29;;;;;;;13.50;7.82;;;;;;;-140.79;100.00;63287.88;5042361;28;20087;-52
2021/12/02 07:55:55;;;;;;;12.20;7.55;;;;;;;-140.79;100.00;63287.88;5042464;28;20037;-51
2021/12/02 07:58:22;;;;;;;10.95;7.40;;;;;;;-140.79;100.00;63287.88;5027351;28;20021;-51
2021/12/02 08:00:47;;;;;;;11.20;7.60;;;;;;;-140.79;100.00;63287.88;5027385;28;20048;-52
2021/12/02 08:03:12;;;;;;;11.68;7.70;;;;;;;-140.79;100.00;63287.88;5038429;28;20033;-51
2021/12/02 08:05:38;;;;;;;11.05;7.10;;;;;;;-140.79;100.00;63287.88;5046422;28;20059;-52
2021/12/02 08:08:04;;;;;;;10.40;7.22;;;;;;;-140.79;100.00;63287.88;5045924;28;20060;-51
2021/12/02 08:10:29;;;;;;;11.30;6.80;;;;;;;-140.79;100.00;63287.88;5027303;28;20037;-52
2021/12/02 08:12:55;;;;;;;10.93;7.13;;;;;;;-140.79;100.00;63287.88;5028826;28;20172;-52
2021/12/02 08:15:22;;;;;;;10.35;6.40;;;;;;;-140.79;100.00;63287.88;5026524;28;20064;-53
2021/12/02 08:17:48;;;;;;;10.23;6.70;;;;;;;-140.79;100.00;63287.88;5028537;28;20029;-52
2021/12/02 08:20:13;;;;;;;11.52;7.32;;;;;;;-140.79;100.00;63287.88;5040651;28;20090;-52
2021/12/02 08:22:39;;;;;;;9.65;6.97;;;;;;;-140.79;100.00;63287.88;5032839;28;20037;-51
2021/12/02 08:25:05;;;;;;;11.55;6.88;;;;;;;-140.79;100.00;63287.88;5042717;28;20634;-54
2021/12/02 08:27:30;;;;;;;11.52;7.45;;;;;;;-140.79;100.00;63287.88;5038832;28;20033;-52
2021/12/02 08:29:56;;;;;;;10.20;6.60;;;;;;;-140.79;100.00;63287.88;5008091;28;20099;-54
2021/12/02 08:32:21;;;;;;;9.05;6.15;;;;;;;-140.79;100.00;63287.88;5025960;28;20088;-51
2021/12/02 08:34:47;;;;;;;10.95;7.10;;;;;;;-140.79;100.00;63287.88;5027921;28;20033;-53
2021/12/02 08:37:13;;;;;;;9.77;6.45;;;;;;;-140.79;100.00;63287.88;5042709;28;20021;-53
2021/12/02 08:39:40;;;;;;;11.15;7.03;;;;;;;-140.79;100.00;63287.88;5025343;28;20630;-54
2021/12/02 08:42:06;;;;;;;11.88;7.10;;;;;;;-140.79;100.00;63287.88;5030814;28;20061;-51
2021/12/02 08:44:34;;;;;;;9.65;6.45;;;;;;;-140.79;100.00;63287.88;5041440;28;20083;-51
2021/12/02 08:46:59;;;;;;;11.93;6.68;;;;;;;-140.79;100.00;63287.88;5033020;28;20053;-51
2021/12/02 08:49:25;;;;;;;10.15;6.65;;;;;;;-140.79;100.00;63287.88;5030920;28;20038;-52
2021/12/02 08:51:51;;;;;;;10.90;6.75;;;;;;;-140.79;100.00;63287.88;5042990;28;20161;-55
2021/12/02 08:54:17;;;;;;;8.77;6.50;;;;;;;-140.79;100.00;63287.88;5034181;28;20036;-52
2021/12/02 08:56:42;;;;;;;9.10;6.35;;;;;;;-140.79;100.00;63287.88;5033209;28;20026;-52
2021/12/02 08:59:08;;;;;;;10.43;6.82;;;;;;;-140.79;100.00;63287.88;5035699;28;20022;-52
2021/12/02 09:01:34;;;;;;;10.32;6.90;;;;;;;-140.79;100.00;63287.88;5040314;28;20410;-53
2021/12/02 09:04:00;;;;;;;8.88;6.38;;;;;;;-140.79;100.00;63287.88;5032209;28;20029;-53
2021/12/02 09:06:25;;;;;;;10.70;7.32;;;;;;;-140.79;100.00;63287.88;5033175;28;20052;-53
2021/12/02 09:08:53;;;;;;;9.73;6.70;;;;;;;-140.79;100.00;63287.88;5031489;28;20106;-54
2021/12/02 09:11:18;;;;;;;10.40;6.60;;;;;;;-140.79;100.00;63287.88;5030386;28;20505;-53
2021/12/02 09:13:44;;;;;;;12.23;7.45;;;;;;;-140.79;100.00;63287.88;5035588;28;20037;-53
2021/12/02 09:16:09;;;;;;;10.85;7.10;;;;;;;-140.79;100.00;63287.88;5031582;28;21898;-51
2021/12/02 09:18:35;;;;;;;10.18;6.65;;;;;;;-140.79;100.00;63287.88;5030067;28;20576;-53
2021/12/02 09:21:00;;;;;;;11.15;6.75;;;;;;;-140.79;100.00;63287.88;5025085;28;20037;-53
2021/12/02 09:23:26;;;;;;;10.98;6.88;;;;;;;-140.79;100.00;63287.88;5032011;28;20402;-53
2021/12/02 09:25:51;;;;;;;10.85;7.50;;;;;;;-140.79;100.00;63287.88;5042769;28;20055;-52
2021/12/02 09:28:17;;;;;;;11.07;7.20;;;;;;;-140.79;100.00;63287.88;5032571;28;20017;-53
2021/12/02 09:30:42;;;;;;;11.32;6.60;;;;;;;-140.79;100.00;63287.88;5035278;28;20119;-52
2021/12/02 09:33:08;;;;;;;9.52;7.05;;;;;;;-140.79;100.00;63287.88;5039991;28;20041;-53
2021/12/02 09:35:34;;;;;;;8.18;6.40;;;;;;;-140.79;100.00;63287.88;5034375;28;20032;-53
2021/12/02 09:38:00;;;;;;;10.25;7.10;;;;;;;-140.79;100.00;63287.88;5034383;28;20107;-52
2021/12/02 09:40:25;;;;;;;11.90;7.30;;;;;;;-140.79;100.00;63287.88;5039596;28;20044;-53
2021/12/02 09:42:51;;;;;;;9.30;6.80;;;;;;;-140.79;100.00;63287.88;5022968;28;20093;-52
2021/12/02 09:45:16;;;;;;;12.68;7.25;;;;;;;-140.79;100.00;63287.88;5023371;28;20025;-53
2021/12/02 09:47:44;;;;;;;11.25;6.63;;;;;;;-140.79;100.00;63287.88;5024516;28;20105;-52
2021/12/02 09:50:17;;;;;;;9.23;6.60;;;;;;;-140.79;100.00;63287.88;5028572;28;20045;-53
2021/12/02 09:52:44;;;;;;;11.98;7.25;;;;;;;-140.79;100.00;63287.88;5033233;28;20032;-53
2021/12/02 09:55:23;;;;;;;10.15;7.10;;;;;;;-140.79;100.00;63287.88;5037980;28;20044;-51
2021/12/02 09:57:52;;;;;;;10.53;6.73;;;;;;;-140.79;100.00;63287.88;5043949;28;20025;-51
2021/12/02 10:00:23;;;;;;;10.55;7.35;;;;;;;-140.79;100.00;63287.88;5043413;28;20854;-52
2021/12/02 10:02:53;;;;;;;10.85;6.85;;;;;;;-140.79;100.00;63287.88;5043885;28;20422;-51
2021/12/02 10:05:34;;;;;;;9.63;6.50;;;;;;;-140.79;100.00;63287.88;5043719;28;20079;-52
2021/12/02 10:08:01;;;;;;;;;;;;;;;-140.79;100.00;63287.88;5042072;28;20534;-51
2021/12/02 10:10:31;;;;;;;9.77;6.40;;;;;;;-140.79;100.00;63287.88;5029173;28;20410;-54
2021/12/02 10:13:35;;;;;;;10.40;6.70;;;;;;;-140.79;100.00;63287.88;5043047;28;20047;-55
2021/12/02 10:16:32;;;;;;;8.55;6.22;;;;;;;-140.79;100.00;63287.88;5043546;28;20040;-51
2021/12/02 10:21:31;;;;;;;11.98;6.28;;;;;;;-140.79;100.00;63287.88;5043727;28;20045;-53
2021/12/02 10:24:01;;;;;;;9.27;6.30;;;;;;;-140.79;100.00;63287.88;5043102;28;20039;-51
2021/12/02 10:26:26;;;;;;;10.10;6.93;;;;;;;-140.79;100.00;63287.88;5043619;28;20029;-52
2021/12/02 10:28:52;;;;;;;10.98;6.35;;;;;;;-140.79;100.00;63287.88;5043635;28;20043;-53
2021/12/02 10:31:22;;;;;;;7.78;5.90;;;;;;;-140.79;100.00;63287.88;5043523;28;20728;-54
2021/12/02 10:33:56;;;;;;;;;;;;;;;-140.79;100.00;63287.88;5043607;28;20356;-53
2021/12/02 10:36:30;;;;;;;10.38;6.20;;;;;;;-140.79;100.00;63287.88;5043029;28;19920;-52
2021/12/02 10:39:08;;;;;;;8.25;5.93;;;;;;;-140.79;100.00;63287.88;5034552;28;20511;-53
2021/12/02 10:41:34;;;;;;;8.95;6.50;;;;;;;-140.79;100.00;63287.88;5039903;28;20037;-51
2021/12/02 10:44:05;;;;;;;9.18;5.97;;;;;;;-140.79;100.00;63287.88;5043119;28;20032;-49
2021/12/02 10:46:31;;;;;;;8.73;6.03;;;;;;;-140.79;100.00;63287.88;5036620;28;20033;-51
2021/12/02 10:48:56;;;;;;;8.95;5.75;;;;;;;-140.79;100.00;63287.88;5043225;28;20613;-48
2021/12/02 10:51:38;;;;;;;9.93;6.28;;;;;;;-140.79;100.00;63287.88;5034543;28;20512;-50
2021/12/02 10:54:08;;;;;;;8.90;5.78;;;;;;;-140.79;100.00;63287.88;5021739;28;20034;-52
2021/12/02 10:56:34;;;;;;;10.38;5.70;;;;;;;-140.79;100.00;63287.88;5040796;28;20053;-53
2021/12/02 10:59:32;;;;;;;7.97;5.80;;;;;;;-140.79;100.00;63287.88;5041034;28;20037;-50
2021/12/02 11:02:00;;;;;;;9.40;6.43;;;;;;;-140.79;100.00;63287.88;5042761;28;20037;-52
2021/12/02 11:04:26;;;;;;;9.65;5.85;;;;;;;-140.79;100.00;63287.88;5042472;28;20021;-49
2021/12/02 11:06:56;;;;;;;8.05;5.82;;;;;;;-140.79;100.00;63287.88;5021559;28;20037;-50
2021/12/02 11:09:24;;;;;;;;;;;;;;;-140.79;100.00;63287.88;5033447;28;20035;-54
2021/12/02 11:12:10;;;;;;;7.35;5.50;;;;;;;-140.79;100.00;63287.88;5043173;28;19921;-51
2021/12/02 11:14:36;;;;;;;8.50;5.75;;;;;;;-140.79;100.00;63287.88;5042758;28;20141;-53
2021/12/02 11:17:11;;;;;;;8.10;5.65;;;;;;;-140.79;100.00;63287.88;5043191;28;20112;-53
2021/12/02 11:19:37;;;;;;;8.60;5.63;;;;;;;-140.79;100.00;63287.88;5042880;28;20123;-51
2021/12/02 11:22:10;;;;;;;8.90;5.90;;;;;;;-140.79;100.00;63287.88;5043323;28;20577;-53
2021/12/02 11:24:36;;;;;;;9.55;5.88;;;;;;;-140.79;100.00;63287.88;5046391;28;20087;-53
2021/12/02 11:27:34;;;;;;;8.00;5.75;;;;;;;-140.79;100.00;63287.88;5046584;28;20037;-50
2021/12/02 11:30:22;;;;;;;7.63;5.32;;;;;;;-140.79;100.00;63287.88;5046490;28;20028;-54